Time;durP1;ratioP1;P1;durP2;ratioP2;P2;SDS_P1;SDS_P2;PMS_P1;PMS_P2;Temp;Humidity;BMP_temperature;BMP_pressure;BME280_temperature;BME280_humidity;BME280_pressure;Samples;Min_cycle;Max_cycle;Signal;HPM_P1;HPM_P2
2021/10/28 00:14:06;;;;;;;8.45;6.40;;;4.80;99.90;;;;;;5035048;28;20201;-68
2021/10/28 00:16:34;;;;;;;7.50;6.60;;;4.70;99.90;;;;;;5033867;28;20591;-68
2021/10/28 00:19:01;;;;;;;8.25;6.32;;;4.70;99.90;;;;;;5034649;28;20226;-68
2021/10/28 00:21:30;;;;;;;7.85;6.32;;;4.60;99.90;;;;;;5033960;28;20216;-68
2021/10/28 00:24:00;;;;;;;9.18;6.85;;;4.60;99.90;;;;;;5034268;28;20230;-68
2021/10/28 00:26:28;;;;;;;8.95;6.45;;;4.60;99.90;;;;;;5033396;28;20224;-68
2021/10/28 00:28:58;;;;;;;10.15;8.45;;;4.60;99.90;;;;;;5034034;28;20205;-68
2021/10/28 00:31:27;;;;;;;8.82;6.70;;;4.60;99.90;;;;;;5034006;28;20289;-68
2021/10/28 00:33:55;;;;;;;11.45;7.30;;;4.60;99.90;;;;;;5033774;28;20212;-68
2021/10/28 00:36:22;;;;;;;9.15;6.35;;;4.60;99.90;;;;;;5033368;28;20226;-68
2021/10/28 00:38:49;;;;;;;8.65;7.05;;;4.70;99.90;;;;;;5033706;28;20232;-68
2021/10/28 00:41:18;;;;;;;9.43;7.97;;;4.60;99.90;;;;;;5034049;28;20217;-68
2021/10/28 00:43:48;;;;;;;9.30;7.70;;;4.60;99.90;;;;;;5033439;28;20300;-68
2021/10/28 00:46:16;;;;;;;8.98;7.25;;;4.60;99.90;;;;;;5033036;28;20225;-68
2021/10/28 00:48:45;;;;;;;13.15;8.80;;;4.60;99.90;;;;;;5033666;28;20580;-68
2021/10/28 00:51:12;;;;;;;12.57;8.18;;;4.50;99.90;;;;;;5033611;28;20212;-68
2021/10/28 00:53:39;;;;;;;10.05;8.25;;;4.50;99.90;;;;;;5033363;28;20206;-68
2021/10/28 00:56:07;;;;;;;10.15;7.75;;;4.50;99.90;;;;;;5032963;28;20221;-68
2021/10/28 00:58:35;;;;;;;9.95;7.65;;;4.50;99.90;;;;;;5033389;28;20226;-68
2021/10/28 01:01:03;;;;;;;9.80;7.75;;;4.50;99.90;;;;;;5033659;28;20208;-68
2021/10/28 01:03:31;;;;;;;9.52;7.85;;;4.40;99.90;;;;;;5033093;28;20202;-68
2021/10/28 01:06:00;;;;;;;10.73;7.30;;;4.40;99.90;;;;;;5032766;28;20737;-68
2021/10/28 01:08:27;;;;;;;13.30;7.60;;;4.40;99.90;;;;;;5032995;28;20205;-68
2021/10/28 01:10:55;;;;;;;9.25;7.57;;;4.40;99.90;;;;;;5033171;28;20570;-68
2021/10/28 01:13:23;;;;;;;10.52;7.38;;;4.40;99.90;;;;;;5033206;28;20632;-68
2021/10/28 01:15:53;;;;;;;10.63;7.93;;;4.40;99.90;;;;;;5031218;28;20228;-68
2021/10/28 01:18:20;;;;;;;13.48;8.38;;;4.50;99.90;;;;;;5033403;28;20230;-68
2021/10/28 01:20:51;;;;;;;10.60;8.23;;;4.50;99.90;;;;;;5033017;28;20213;-68
2021/10/28 01:23:20;;;;;;;11.00;8.57;;;4.50;99.90;;;;;;5032957;28;20670;-68
2021/10/28 01:25:51;;;;;;;11.05;8.45;;;4.50;99.90;;;;;;5032272;28;20591;-68
2021/10/28 01:28:19;;;;;;;12.88;9.05;;;4.50;99.90;;;;;;5033269;28;20206;-68
2021/10/28 01:30:47;;;;;;;15.43;9.02;;;4.60;99.90;;;;;;5032878;28;20574;-68
2021/10/28 01:33:14;;;;;;;13.32;9.80;;;4.60;99.90;;;;;;5032878;28;20701;-68
2021/10/28 01:35:41;;;;;;;13.32;10.40;;;4.60;99.90;;;;;;5032380;28;20827;-68
2021/10/28 01:38:10;;;;;;;13.82;9.30;;;4.60;99.90;;;;;;5032547;28;20222;-68
2021/10/28 01:40:36;;;;;;;12.85;10.02;;;4.60;99.90;;;;;;5032896;28;20267;-68
2021/10/28 01:43:03;;;;;;;18.23;9.52;;;4.60;99.90;;;;;;5032924;28;20209;-68
2021/10/28 01:45:30;;;;;;;17.70;9.02;;;4.60;99.90;;;;;;5032306;28;20229;-68
2021/10/28 01:47:57;;;;;;;15.85;10.20;;;4.60;99.90;;;;;;5032119;28;20205;-68
2021/10/28 01:50:24;;;;;;;17.45;10.30;;;4.60;99.90;;;;;;5032672;28;20197;-68
2021/10/28 01:52:51;;;;;;;18.60;11.00;;;4.60;99.90;;;;;;5032672;28;20213;-68
2021/10/28 01:55:19;;;;;;;14.45;11.45;;;4.70;99.90;;;;;;5032148;28;20225;-68
2021/10/28 01:57:46;;;;;;;13.10;10.00;;;4.70;99.90;;;;;;5032232;28;20627;-68
2021/10/28 02:00:16;;;;;;;19.63;10.55;;;4.70;99.90;;;;;;5033395;28;20573;-69
2021/10/28 02:02:45;;;;;;;12.95;10.52;;;4.70;99.90;;;;;;5033643;28;20202;-69
2021/10/28 02:05:12;;;;;;;13.02;10.25;;;4.80;99.90;;;;;;5033478;28;20233;-69
2021/10/28 02:07:39;;;;;;;13.38;9.35;;;4.70;99.90;;;;;;5032378;28;20209;-69
2021/10/28 02:10:08;;;;;;;11.57;8.70;;;4.70;99.90;;;;;;5033386;28;20200;-68
2021/10/28 02:12:36;;;;;;;10.55;8.90;;;4.60;99.90;;;;;;5033053;28;20201;-69
2021/10/28 02:15:06;;;;;;;10.70;8.55;;;4.50;99.90;;;;;;5032746;28;20213;-68
2021/10/28 02:17:32;;;;;;;14.45;10.55;;;4.50;99.90;;;;;;5031856;28;20201;-68
2021/10/28 02:19:59;;;;;;;12.05;9.32;;;4.50;99.90;;;;;;5033191;28;20657;-68
2021/10/28 02:22:26;;;;;;;12.27;9.15;;;4.40;99.90;;;;;;5032783;28;20233;-69
2021/10/28 02:24:53;;;;;;;11.07;9.70;;;4.40;99.90;;;;;;5032255;28;20225;-69
2021/10/28 02:27:20;;;;;;;14.50;9.98;;;4.40;99.90;;;;;;5031758;28;20237;-69
2021/10/28 02:29:48;;;;;;;15.38;9.90;;;4.40;99.90;;;;;;5031956;28;20255;-68
2021/10/28 02:32:16;;;;;;;10.82;9.50;;;4.40;99.90;;;;;;5032420;28;20197;-68
2021/10/28 02:34:43;;;;;;;13.40;10.48;;;4.30;99.90;;;;;;5032313;28;20229;-68
2021/10/28 02:37:10;;;;;;;14.15;10.63;;;4.30;99.90;;;;;;5031752;28;20264;-68
2021/10/28 02:39:37;;;;;;;16.60;12.30;;;4.30;99.90;;;;;;5032362;28;20260;-68
2021/10/28 02:42:05;;;;;;;18.23;11.05;;;4.30;99.90;;;;;;5032205;28;20584;-68
2021/10/28 02:44:31;;;;;;;12.10;10.30;;;4.20;99.90;;;;;;5031927;28;20209;-68
2021/10/28 02:47:00;;;;;;;15.27;10.30;;;4.20;99.90;;;;;;5031485;28;20639;-68
2021/10/28 02:49:26;;;;;;;12.93;8.85;;;4.10;99.90;;;;;;5031913;28;20197;-68
2021/10/28 02:51:54;;;;;;;16.13;11.65;;;4.10;99.90;;;;;;5032004;28;20584;-68
2021/10/28 02:54:23;;;;;;;12.27;9.05;;;4.00;99.90;;;;;;5031748;28;20208;-68
2021/10/28 02:56:50;;;;;;;13.85;10.15;;;4.00;99.90;;;;;;5031142;28;20225;-68
2021/10/28 02:59:18;;;;;;;13.27;10.95;;;3.90;99.90;;;;;;5031452;28;20236;-68
2021/10/28 03:01:46;;;;;;;13.13;9.20;;;3.80;99.90;;;;;;5031386;28;20704;-68
2021/10/28 03:04:16;;;;;;;16.45;10.15;;;3.80;99.90;;;;;;5031460;28;20213;-69
2021/10/28 03:06:43;;;;;;;16.20;9.45;;;3.70;99.90;;;;;;5030680;28;20218;-68
2021/10/28 03:09:11;;;;;;;12.35;9.60;;;3.60;99.90;;;;;;5031709;28;20209;-68
2021/10/28 03:11:40;;;;;;;13.32;9.25;;;3.60;99.90;;;;;;5031500;28;20197;-69
2021/10/28 03:14:10;;;;;;;12.50;10.18;;;3.60;99.90;;;;;;5031421;28;20473;-68
2021/10/28 03:16:46;;;;;;;11.32;8.35;;;3.50;99.90;;;;;;5030599;28;20221;-68
2021/10/28 03:19:31;;;;;;;11.52;8.30;;;3.50;99.90;;;;;;5031249;28;20217;-68
2021/10/28 03:27:27;;;;;;;10.52;8.20;;;3.40;99.90;;;;;;5030910;28;20204;-68
2021/10/28 03:29:55;;;;;;;10.27;8.10;;;3.40;99.90;;;;;;5031375;28;20205;-69
2021/10/28 03:32:22;;;;;;;10.60;8.30;;;3.40;99.90;;;;;;5031265;28;20205;-68
2021/10/28 03:34:51;;;;;;;10.10;8.52;;;3.40;99.90;;;;;;5030983;28;20605;-68
2021/10/28 03:37:21;;;;;;;9.15;8.00;;;3.40;99.90;;;;;;5030802;28;20225;-68
2021/10/28 03:40:06;;;;;;;9.68;8.43;;;3.50;99.90;;;;;;5034180;28;20674;-68
2021/10/28 03:43:01;;;;;;;11.65;8.93;;;3.50;99.90;;;;;;5035276;28;20201;-68
2021/10/28 04:00:00;;;;;;;13.73;9.35;;;3.80;99.90;;;;;;5035688;28;20227;-68
2021/10/28 04:03:16;;;;;;;14.70;11.27;;;3.80;99.90;;;;;;5035037;28;20289;-68
2021/10/28 04:16:52;;;;;;;14.30;11.35;;;4.20;99.90;;;;;;5034205;28;20220;-68
2021/10/28 04:19:34;;;;;;;16.88;12.05;;;4.20;99.90;;;;;;5034808;28;20230;-68
2021/10/28 04:30:12;;;;;;;17.08;13.05;;;4.60;99.90;;;;;;5034528;28;20189;-68
2021/10/28 04:32:38;;;;;;;22.52;14.70;;;4.70;99.90;;;;;;5034309;28;20213;-68
2021/10/28 04:35:07;;;;;;;18.88;15.52;;;4.80;99.90;;;;;;5034437;28;20202;-68
2021/10/28 04:37:34;;;;;;;18.65;14.55;;;4.90;99.90;;;;;;5034243;28;20205;-68
2021/10/28 04:40:02;;;;;;;21.25;15.20;;;4.90;99.90;;;;;;5034752;28;20232;-68
2021/10/28 04:42:29;;;;;;;17.35;13.05;;;5.00;99.90;;;;;;5034672;28;20205;-68
2021/10/28 04:44:56;;;;;;;20.23;14.77;;;5.00;99.90;;;;;;5035027;28;20201;-68
2021/10/28 04:47:22;;;;;;;28.05;16.77;;;5.00;99.90;;;;;;5034211;28;20206;-68
2021/10/28 04:49:50;;;;;;;16.48;12.57;;;5.10;99.90;;;;;;5034691;28;20567;-68
2021/10/28 04:52:16;;;;;;;23.23;17.10;;;5.30;99.90;;;;;;5034901;28;20205;-68
2021/10/28 04:54:43;;;;;;;30.75;16.88;;;5.50;99.90;;;;;;5035116;28;20201;-68
2021/10/28 04:57:11;;;;;;;22.73;17.95;;;5.60;99.90;;;;;;5034212;28;20716;-68
2021/10/28 04:59:38;;;;;;;54.33;18.65;;;5.60;99.90;;;;;;5034347;28;20225;-68
2021/10/28 05:02:06;;;;;;;26.85;16.48;;;5.60;99.90;;;;;;5034471;28;20208;-68
2021/10/28 05:04:32;;;;;;;25.67;16.40;;;5.60;99.90;;;;;;5034520;28;20206;-68
2021/10/28 05:06:59;;;;;;;23.30;17.58;;;5.60;99.90;;;;;;5034107;28;20244;-68
2021/10/28 05:09:28;;;;;;;25.48;15.80;;;5.60;99.90;;;;;;5034454;28;20196;-68
2021/10/28 05:11:55;;;;;;;25.48;17.23;;;5.60;99.90;;;;;;5034574;28;20276;-68
2021/10/28 05:14:24;;;;;;;40.88;17.67;;;5.50;99.90;;;;;;5034385;28;20212;-68
2021/10/28 05:16:55;;;;;;;25.35;17.25;;;5.50;99.90;;;;;;5117573;22;20234;-73
2021/10/28 05:19:22;;;;;;;23.20;15.55;;;5.50;99.90;;;;;;5032539;28;20570;-74
2021/10/28 05:21:53;;;;;;;22.02;16.70;;;5.60;99.90;;;;;;5032480;28;20213;-73
2021/10/28 05:24:20;;;;;;;22.30;15.00;;;5.60;99.90;;;;;;5032650;28;20206;-74
2021/10/28 05:26:47;;;;;;;27.92;14.98;;;5.60;99.90;;;;;;5031662;28;20735;-74
2021/10/28 05:29:14;;;;;;;20.25;15.30;;;5.60;99.90;;;;;;5032457;28;20206;-73
2021/10/28 05:31:42;;;;;;;21.60;16.17;;;5.60;99.90;;;;;;5032489;28;20217;-73
2021/10/28 05:34:09;;;;;;;19.60;14.73;;;5.60;99.90;;;;;;5032227;28;20216;-73
2021/10/28 05:36:36;;;;;;;20.92;15.25;;;5.60;99.90;;;;;;5031789;28;20701;-74
2021/10/28 05:39:02;;;;;;;20.75;16.23;;;5.60;99.90;;;;;;5031986;28;20225;-73
2021/10/28 05:41:29;;;;;;;18.80;13.95;;;5.60;99.90;;;;;;5032483;28;20208;-73
2021/10/28 05:43:56;;;;;;;23.02;15.60;;;5.60;99.90;;;;;;5032294;28;20205;-74
2021/10/28 05:46:23;;;;;;;26.52;17.05;;;5.60;99.90;;;;;;5032006;28;20225;-74
2021/10/28 05:48:51;;;;;;;20.67;14.38;;;5.70;99.90;;;;;;5032124;28;20673;-74
2021/10/28 05:51:18;;;;;;;19.88;13.93;;;5.70;99.90;;;;;;5030222;28;20273;-74
2021/10/28 05:53:46;;;;;;;20.02;15.52;;;5.70;99.90;;;;;;5030976;28;20202;-74
2021/10/28 05:56:14;;;;;;;20.45;14.45;;;5.80;99.90;;;;;;5034252;28;20300;-74
2021/10/28 05:58:40;;;;;;;18.02;13.93;;;5.80;99.90;;;;;;5042673;28;20221;-73
2021/10/28 06:01:07;;;;;;;21.05;14.68;;;5.70;99.90;;;;;;5039245;28;20202;-73
2021/10/28 06:03:36;;;;;;;18.60;14.38;;;5.70;99.90;;;;;;5045392;28;20209;-73
2021/10/28 06:06:05;;;;;;;17.83;13.90;;;5.70;99.90;;;;;;5050057;28;20724;-73
2021/10/28 06:08:31;;;;;;;21.63;14.00;;;5.70;99.90;;;;;;5045085;28;20208;-73
2021/10/28 06:10:58;;;;;;;17.58;12.88;;;5.60;99.90;;;;;;5050919;28;20207;-73
2021/10/28 06:13:26;;;;;;;16.08;12.65;;;5.60;99.90;;;;;;5050402;28;20201;-73
2021/10/28 06:15:53;;;;;;;16.98;13.85;;;5.60;99.90;;;;;;5030383;28;20252;-73
2021/10/28 06:18:37;;;;;;;17.60;13.77;;;5.70;99.90;;;;;;5029115;28;20201;-74
2021/10/28 06:21:07;;;;;;;14.77;12.60;;;5.70;99.90;;;;;;5031107;28;20224;-73
2021/10/28 06:23:34;;;;;;;15.35;12.93;;;5.70;99.90;;;;;;5033531;28;20197;-73
2021/10/28 06:26:01;;;;;;;14.98;12.35;;;5.70;99.90;;;;;;5048388;28;20225;-73
2021/10/28 06:28:28;;;;;;;16.83;12.98;;;5.80;99.90;;;;;;5049171;28;20201;-73
2021/10/28 06:30:54;;;;;;;14.88;12.57;;;5.80;99.90;;;;;;5028255;28;20579;-73
2021/10/28 06:33:24;;;;;;;18.08;13.27;;;5.80;99.90;;;;;;5028446;28;20409;-72
2021/10/28 06:35:51;;;;;;;14.52;12.77;;;5.90;99.90;;;;;;5049888;28;20225;-74
2021/10/28 06:38:19;;;;;;;15.40;12.50;;;5.90;99.90;;;;;;5049624;28;20205;-73
2021/10/28 06:40:46;;;;;;;15.48;13.02;;;6.00;99.90;;;;;;5050569;28;20221;-73
2021/10/28 06:43:13;;;;;;;14.38;11.68;;;6.00;99.90;;;;;;5050991;28;20205;-73
2021/10/28 06:45:40;;;;;;;15.15;12.18;;;6.10;99.90;;;;;;5049666;28;20225;-72
2021/10/28 06:48:07;;;;;;;15.88;12.98;;;6.10;99.90;;;;;;5050616;28;20623;-73
2021/10/28 06:50:40;;;;;;;17.70;14.65;;;6.10;99.90;;;;;;5050898;28;20193;-72
2021/10/28 06:53:11;;;;;;;15.85;13.10;;;6.10;99.90;;;;;;5050545;28;20900;-73
2021/10/28 06:55:47;;;;;;;16.75;13.10;;;6.10;99.90;;;;;;5050259;28;20719;-74
2021/10/28 07:03:44;;;;;;;14.18;11.38;;;6.30;99.90;;;;;;5029573;28;20200;-74
2021/10/28 07:06:12;;;;;;;15.80;12.50;;;6.40;99.90;;;;;;5030282;28;20221;-73
2021/10/28 07:08:42;;;;;;;16.10;13.95;;;6.40;99.90;;;;;;5030685;28;20573;-73
2021/10/28 07:11:14;;;;;;;15.82;12.27;;;6.40;99.90;;;;;;5030355;28;20197;-73
2021/10/28 07:13:43;;;;;;;15.68;12.82;;;6.50;99.90;;;;;;5030608;28;20206;-72
2021/10/28 07:18:59;;;;;;;14.95;12.18;;;7.00;99.90;;;;;;5030092;28;20695;-73
2021/10/28 07:21:41;;;;;;;16.20;12.57;;;7.30;99.90;;;;;;5030883;28;20212;-73
2021/10/28 07:27:20;;;;;;;13.20;11.80;;;7.70;99.90;;;;;;5030064;28;20220;-73
2021/10/28 07:33:10;;;;;;;11.48;10.07;;;8.20;99.90;;;;;;5017204;28;20248;-73
2021/10/28 07:35:59;;;;;;;13.70;11.35;;;8.40;99.90;;;;;;5030018;28;20234;-73
2021/10/28 08:13:25;;;;;;;11.65;10.43;;;11.10;99.90;;;;;;5029356;28;20220;-73
2021/10/28 08:14:57;;;;;;;11.05;9.95;;;11.00;99.90;;;;;;5030082;28;20696;-73
2021/10/28 08:22:49;;;;;;;10.75;9.65;;;11.80;99.90;;;;;;5028213;28;20210;-72
2021/10/28 08:30:44;;;;;;;10.77;9.68;;;12.40;99.90;;;;;;5032679;28;20592;-73
2021/10/28 08:33:13;;;;;;;11.35;9.98;;;12.60;99.90;;;;;;5016257;28;20257;-73
2021/10/28 08:35:51;;;;;;;11.15;9.95;;;12.80;99.90;;;;;;5013671;28;20250;-73
2021/10/28 08:38:18;;;;;;;12.00;10.83;;;12.90;99.90;;;;;;5013896;28;20210;-73
2021/10/28 08:40:44;;;;;;;11.30;10.20;;;12.90;99.90;;;;;;5013499;28;20488;-72
2021/10/28 08:43:12;;;;;;;13.57;12.18;;;12.70;99.90;;;;;;5013250;28;20230;-73
2021/10/28 08:45:39;;;;;;;15.35;12.85;;;12.70;99.90;;;;;;5013457;28;20218;-72
2021/10/28 08:48:08;;;;;;;13.83;12.33;;;12.70;99.90;;;;;;5013449;28;20610;-73
2021/10/28 08:50:41;;;;;;;14.67;12.23;;;12.80;99.90;;;;;;5022830;28;20552;-73
2021/10/28 08:53:23;;;;;;;14.93;12.00;;;12.70;99.90;;;;;;5033427;28;20517;-73
2021/10/28 08:55:53;;;;;;;15.07;13.10;;;12.70;99.90;;;;;;5032909;28;20221;-72
2021/10/28 09:26:40;;;;;;;15.77;12.70;;;14.10;99.90;;;;;;5012487;28;20520;-73
2021/10/28 09:29:15;;;;;;;15.20;13.60;;;14.10;99.90;;;;;;5011335;28;20564;-73
2021/10/28 09:31:52;;;;;;;16.57;13.00;;;14.20;99.90;;;;;;5011432;28;20918;-72
2021/10/28 09:34:31;;;;;;;14.97;12.50;;;14.10;99.90;;;;;;5012142;28;20885;-73
2021/10/28 09:45:34;;;;;;;15.90;12.20;;;15.00;99.90;;;;;;5006630;28;20485;-72
2021/10/28 09:48:17;;;;;;;15.57;12.63;;;15.20;99.90;;;;;;5006353;28;20465;-73
2021/10/28 09:50:53;;;;;;;14.00;12.40;;;15.40;99.90;;;;;;5012345;28;21023;-73
2021/10/28 09:53:28;;;;;;;15.10;12.90;;;15.80;99.90;;;;;;5012168;28;20461;-74
2021/10/28 09:58:42;;;;;;;12.80;11.43;;;16.40;99.90;;;;;;5012012;28;20452;-73
2021/10/28 10:01:28;;;;;;;14.63;12.43;;;16.70;99.90;;;;;;5011270;28;21070;-73
2021/10/28 10:03:58;;;;;;;14.47;12.97;;;16.80;99.90;;;;;;5011525;28;20460;-72
2021/10/28 10:06:26;;;;;;;13.10;11.37;;;16.90;99.90;;;;;;5012081;28;20909;-74
2021/10/28 10:08:55;;;;;;;13.60;11.23;;;17.00;99.90;;;;;;5012044;28;20807;-74
2021/10/28 10:11:27;;;;;;;12.77;10.90;;;17.40;99.90;;;;;;5012287;28;20625;-74
2021/10/28 10:13:55;;;;;;;14.33;12.70;;;17.60;99.90;;;;;;5013296;28;20929;-72
2021/10/28 10:16:22;;;;;;;12.20;10.90;;;17.20;99.90;;;;;;5010328;28;20495;-72
2021/10/28 10:18:51;;;;;;;13.20;11.80;;;17.20;99.90;;;;;;5012065;28;20468;-74
2021/10/28 10:21:28;;;;;;;11.40;10.20;;;17.60;99.90;;;;;;5012564;28;20481;-74
2021/10/28 10:24:09;;;;;;;12.70;11.40;;;18.10;99.90;;;;;;5011137;28;20883;-74
2021/10/28 10:27:41;;;;;;;11.60;10.00;;;18.10;99.90;;;;;;5011084;28;20493;-73
2021/10/28 11:30:14;;;;;;;8.43;7.43;;;21.20;98.10;;;;;;5045013;28;20480;-92
2021/10/28 12:28:56;;;;;;;6.17;5.57;;;22.80;98.30;;;;;;4988191;28;20871;-92
2021/10/28 12:45:12;;;;;;;8.50;7.70;;;21.50;99.50;;;;;;4999416;28;20514;-92
2021/10/28 12:53:45;;;;;;;8.37;7.57;;;20.70;99.80;;;;;;5087863;27;20539;-68
2021/10/28 12:56:29;;;;;;;11.17;10.07;;;20.60;99.90;;;;;;5076247;28;21006;-68
2021/10/28 13:02:23;;;;;;;10.50;9.07;;;20.40;99.90;;;;;;5067996;28;20454;-68
2021/10/28 13:27:59;;;;;;;8.93;7.47;;;20.20;99.90;;;;;;5067510;28;20453;-68
2021/10/28 13:49:55;;;;;;;8.60;7.50;;;19.80;99.90;;;;;;5067616;28;20438;-69
2021/10/28 13:52:41;;;;;;;8.23;7.40;;;19.80;99.90;;;;;;5067527;28;21086;-69
2021/10/28 13:55:23;;;;;;;9.10;7.83;;;19.80;99.90;;;;;;5067442;28;20562;-69
2021/10/28 13:58:05;;;;;;;9.17;7.90;;;19.90;99.90;;;;;;5067487;28;20549;-69
2021/10/28 14:15:03;;;;;;;9.40;7.50;;;19.60;99.90;;;;;;5054763;28;20489;-69
2021/10/28 14:20:47;;;;;;;7.40;6.63;;;19.50;99.90;;;;;;5074822;28;20492;-69
2021/10/28 14:23:27;;;;;;;8.17;7.30;;;19.40;99.90;;;;;;5074688;28;20558;-69
2021/10/28 15:29:12;;;;;;;11.30;5.40;;;15.40;99.90;;;;;;5073596;28;20485;-69
2021/10/28 15:37:19;;;;;;;8.40;4.13;;;14.50;99.90;;;;;;5047222;28;20485;-68
2021/10/28 15:39:58;;;;;;;4.53;4.10;;;14.20;99.90;;;;;;5046455;28;20891;-69
2021/10/28 15:59:27;;;;;;;8.00;5.27;;;12.90;99.90;;;;;;5069182;28;20528;-68
2021/10/28 16:23:51;;;;;;;7.28;5.57;;;11.60;99.90;;;;;;5071152;28;20246;-68
2021/10/28 16:26:18;;;;;;;7.53;5.15;;;11.50;99.90;;;;;;5049640;28;20224;-69
2021/10/28 16:28:46;;;;;;;9.52;6.20;;;11.30;99.90;;;;;;5049915;28;20205;-69
2021/10/28 16:31:15;;;;;;;8.88;6.40;;;11.20;99.90;;;;;;5045166;28;20205;-69
2021/10/28 16:33:42;;;;;;;12.63;7.70;;;11.10;99.90;;;;;;5050153;28;20197;-69
2021/10/28 16:36:10;;;;;;;12.88;10.65;;;11.00;99.90;;;;;;5050776;28;20572;-69
2021/10/28 16:38:37;;;;;;;16.13;11.98;;;10.90;99.90;;;;;;5051082;28;20286;-69
2021/10/28 16:41:03;;;;;;;20.58;15.73;;;10.80;99.90;;;;;;5050916;28;20216;-68
2021/10/28 16:43:30;;;;;;;25.83;20.45;;;10.70;99.90;;;;;;5051061;28;20204;-69
2021/10/28 16:45:58;;;;;;;22.10;17.30;;;10.70;99.90;;;;;;5050340;28;20509;-68
2021/10/28 16:48:25;;;;;;;25.73;18.50;;;10.70;99.90;;;;;;5044928;28;20252;-69
2021/10/28 16:50:54;;;;;;;15.00;12.60;;;10.70;99.90;;;;;;5047035;28;20200;-69
2021/10/28 16:53:21;;;;;;;11.70;10.50;;;10.60;99.90;;;;;;5049734;28;20229;-69
2021/10/28 16:55:49;;;;;;;10.45;7.57;;;10.60;99.90;;;;;;5048976;28;20229;-69
2021/10/28 16:58:16;;;;;;;15.90;7.30;;;10.50;99.90;;;;;;5050023;28;20304;-69
2021/10/28 17:00:43;;;;;;;11.82;7.78;;;10.40;99.90;;;;;;5049139;28;20209;-68
2021/10/28 17:03:11;;;;;;;15.13;7.55;;;10.30;99.90;;;;;;5048974;28;20201;-68
2021/10/28 17:05:37;;;;;;;12.35;8.00;;;10.20;99.90;;;;;;5048899;28;20225;-68
2021/10/28 17:08:05;;;;;;;8.65;6.43;;;10.00;99.90;;;;;;5046431;28;20213;-69
2021/10/28 17:10:32;;;;;;;10.20;7.40;;;9.90;99.90;;;;;;5040793;28;20455;-69
2021/10/28 17:12:59;;;;;;;12.60;7.20;;;9.80;99.90;;;;;;5046538;28;20221;-69
2021/10/28 17:15:26;;;;;;;10.52;6.22;;;9.80;99.90;;;;;;5046442;28;20225;-69
2021/10/28 17:17:53;;;;;;;11.63;6.85;;;9.80;99.90;;;;;;5045967;28;20263;-69
2021/10/28 17:20:22;;;;;;;15.77;8.35;;;9.70;99.90;;;;;;5046060;28;20665;-69
2021/10/28 17:22:49;;;;;;;16.45;10.63;;;9.60;99.90;;;;;;5045836;28;20560;-69
2021/10/28 17:25:20;;;;;;;21.40;12.75;;;9.60;99.90;;;;;;5046420;28;20236;-70
2021/10/28 17:27:49;;;;;;;27.10;14.95;;;9.60;99.90;;;;;;5045233;28;20205;-69
2021/10/28 17:30:17;;;;;;;23.95;14.70;;;9.50;99.90;;;;;;5046132;28;20274;-69
2021/10/28 17:32:45;;;;;;;34.35;17.65;;;9.50;99.90;;;;;;5045891;28;20632;-70
2021/10/28 17:35:14;;;;;;;40.08;20.55;;;9.40;99.90;;;;;;5033011;28;20201;-69
2021/10/28 17:37:42;;;;;;;41.50;18.13;;;9.30;99.90;;;;;;5043751;28;20247;-69
2021/10/28 17:40:10;;;;;;;21.85;11.45;;;9.30;99.90;;;;;;5050627;28;20764;-69
2021/10/28 17:42:39;;;;;;;16.40;11.48;;;9.20;99.90;;;;;;5050502;28;20276;-69
2021/10/28 17:45:07;;;;;;;20.42;10.75;;;9.10;99.90;;;;;;5049877;28;20672;-70
2021/10/28 17:47:35;;;;;;;19.65;10.20;;;9.10;99.90;;;;;;5047662;28;20564;-69
2021/10/28 17:50:02;;;;;;;16.52;9.25;;;9.00;99.90;;;;;;5050989;28;20266;-69
2021/10/28 17:52:29;;;;;;;23.17;12.32;;;9.00;99.90;;;;;;5050194;28;20227;-69
2021/10/28 17:54:57;;;;;;;24.17;12.70;;;8.90;99.90;;;;;;5051544;28;20205;-69
2021/10/28 17:57:24;;;;;;;34.83;17.30;;;9.00;99.90;;;;;;5070087;28;20200;-70
2021/10/28 17:59:51;;;;;;;46.08;18.67;;;9.00;99.90;;;;;;5069905;28;20212;-70
2021/10/28 18:02:18;;;;;;;41.08;18.20;;;8.90;99.90;;;;;;5069725;28;20208;-69
2021/10/28 18:04:44;;;;;;;47.35;19.15;;;8.90;99.90;;;;;;5061714;28;20510;-69
2021/10/28 18:07:11;;;;;;;35.50;16.23;;;8.80;99.90;;;;;;5044318;28;20636;-69
2021/10/28 18:09:41;;;;;;;31.20;14.32;;;8.80;99.90;;;;;;5048521;28;20209;-70
2021/10/28 18:12:10;;;;;;;30.92;13.77;;;8.70;99.90;;;;;;5046949;28;20213;-69
2021/10/28 18:14:39;;;;;;;38.20;15.15;;;8.70;99.90;;;;;;5049914;28;20209;-69
2021/10/28 18:17:08;;;;;;;35.97;15.38;;;8.70;99.90;;;;;;5049826;28;20231;-69
2021/10/28 18:19:35;;;;;;;40.85;17.67;;;8.70;99.90;;;;;;5049475;28;20197;-69
2021/10/28 18:22:01;;;;;;;56.78;20.63;;;8.60;99.90;;;;;;5049469;28;20201;-69
2021/10/28 18:24:28;;;;;;;56.35;22.00;;;8.60;99.90;;;;;;5048445;28;20228;-69
2021/10/28 18:26:55;;;;;;;66.53;24.40;;;8.50;99.90;;;;;;5048603;28;20229;-69
2021/10/28 18:29:23;;;;;;;47.22;21.52;;;8.50;99.90;;;;;;5049052;28;20216;-69
2021/10/28 18:31:51;;;;;;;33.05;15.40;;;8.50;99.90;;;;;;5049221;28;20617;-69
2021/10/28 18:34:18;;;;;;;27.13;13.88;;;8.40;99.90;;;;;;5049278;28;20315;-69
2021/10/28 18:36:46;;;;;;;25.20;11.80;;;8.40;99.90;;;;;;5047835;28;20217;-69
2021/10/28 18:39:13;;;;;;;13.80;9.73;;;8.40;99.90;;;;;;5049041;28;20205;-69
2021/10/28 18:41:41;;;;;;;9.35;7.95;;;8.30;99.90;;;;;;5048155;28;20209;-69
2021/10/28 18:44:08;;;;;;;11.68;8.25;;;8.30;99.90;;;;;;5049055;28;20738;-70
2021/10/28 18:46:37;;;;;;;11.90;9.10;;;8.20;99.90;;;;;;5048507;28;20231;-69
2021/10/28 18:49:05;;;;;;;16.23;9.98;;;8.20;99.90;;;;;;5048841;28;20274;-70
2021/10/28 18:51:33;;;;;;;22.25;15.07;;;8.20;99.90;;;;;;5048423;28;20212;-69
2021/10/28 18:54:00;;;;;;;37.95;21.65;;;8.10;99.90;;;;;;5048513;28;20236;-69
2021/10/28 18:56:27;;;;;;;36.47;20.80;;;8.10;99.90;;;;;;5048474;28;20225;-69
2021/10/28 18:58:55;;;;;;;34.03;18.55;;;8.10;99.90;;;;;;5048380;28;20240;-69
2021/10/28 19:01:21;;;;;;;22.30;14.70;;;8.10;99.90;;;;;;5048181;28;20573;-69
2021/10/28 19:03:52;;;;;;;22.08;13.40;;;8.10;99.90;;;;;;5048031;28;20204;-70
2021/10/28 19:06:19;;;;;;;23.13;13.68;;;8.10;99.90;;;;;;5047437;28;20221;-69
2021/10/28 19:08:47;;;;;;;16.33;11.70;;;8.00;99.90;;;;;;5048131;28;20582;-69
2021/10/28 19:11:15;;;;;;;22.10;10.20;;;7.90;99.90;;;;;;5048327;28;20201;-69
2021/10/28 19:13:44;;;;;;;11.27;8.38;;;7.90;99.90;;;;;;5047714;28;20225;-69
2021/10/28 19:16:12;;;;;;;10.23;7.57;;;7.80;99.90;;;;;;5047734;28;20225;-69
2021/10/28 19:18:40;;;;;;;11.23;8.60;;;7.80;99.90;;;;;;5048099;28;20255;-70
2021/10/28 19:21:09;;;;;;;11.52;8.45;;;7.80;99.90;;;;;;5048720;28;20204;-69
2021/10/28 19:23:36;;;;;;;11.88;8.27;;;7.80;99.90;;;;;;5048441;28;20261;-69
2021/10/28 19:26:04;;;;;;;13.32;8.82;;;7.80;99.90;;;;;;5047967;28;20742;-69
2021/10/28 19:28:31;;;;;;;11.52;8.50;;;7.70;99.90;;;;;;5049559;28;20313;-69
2021/10/28 19:31:00;;;;;;;13.65;9.95;;;7.70;99.90;;;;;;5049039;28;20204;-67
2021/10/28 19:33:35;;;;;;;14.88;8.73;;;7.70;99.90;;;;;;5048207;28;20278;-68
2021/10/28 19:36:04;;;;;;;11.27;8.73;;;7.60;99.90;;;;;;5047175;28;20311;-68
2021/10/28 19:38:45;;;;;;;8.90;7.57;;;7.60;99.90;;;;;;5048211;28;20208;-68
2021/10/28 19:46:54;;;;;;;11.45;8.73;;;7.60;99.90;;;;;;5007503;28;20272;-70
2021/10/28 19:49:21;;;;;;;11.55;8.65;;;7.50;99.90;;;;;;5029681;28;20307;-69
2021/10/28 19:51:49;;;;;;;9.27;7.63;;;7.50;99.90;;;;;;5048825;28;20216;-69
2021/10/28 19:54:17;;;;;;;11.55;7.45;;;7.50;99.90;;;;;;5048833;28;20224;-69
2021/10/28 19:56:44;;;;;;;9.73;7.88;;;7.40;99.90;;;;;;5048389;28;20231;-69
2021/10/28 19:59:14;;;;;;;13.40;8.07;;;7.40;99.90;;;;;;5049068;28;20209;-68
2021/10/28 20:01:46;;;;;;;9.45;8.23;;;7.30;99.90;;;;;;5047833;28;20417;-69
2021/10/28 20:07:08;;;;;;;8.85;7.63;;;7.20;99.90;;;;;;5047472;28;20228;-68
2021/10/28 20:15:25;;;;;;;14.48;6.80;;;7.10;99.90;;;;;;5048292;28;20749;-69
2021/10/28 20:20:38;;;;;;;10.23;8.30;;;7.10;99.90;;;;;;5048483;28;20335;-70
2021/10/28 20:23:05;;;;;;;11.23;7.15;;;7.10;99.90;;;;;;5048384;28;20689;-69
2021/10/28 20:25:33;;;;;;;10.80;7.97;;;7.00;99.90;;;;;;5048782;28;20224;-69
2021/10/28 20:28:04;;;;;;;17.45;9.40;;;7.00;99.90;;;;;;5047618;28;20227;-69
2021/10/28 20:30:30;;;;;;;13.25;7.90;;;6.90;99.90;;;;;;5047869;28;20307;-69
2021/10/28 20:32:58;;;;;;;12.23;8.20;;;6.90;99.90;;;;;;5047988;28;20229;-69
2021/10/28 20:35:53;;;;;;;11.80;8.35;;;6.90;99.90;;;;;;5048664;28;20231;-69
2021/10/28 20:38:20;;;;;;;9.95;7.82;;;6.90;99.90;;;;;;5048489;28;20213;-69
2021/10/28 20:40:48;;;;;;;11.50;9.05;;;6.90;99.90;;;;;;5047604;28;20209;-69
2021/10/28 20:43:16;;;;;;;11.35;9.77;;;6.90;99.90;;;;;;5047711;28;20314;-70
2021/10/28 20:45:43;;;;;;;13.02;9.80;;;6.80;99.90;;;;;;5046945;28;20232;-69
2021/10/28 20:48:10;;;;;;;11.77;9.88;;;6.80;99.90;;;;;;5047498;28;20275;-69